sensor_id;sensor_type;location;lat;lon;timestamp;pressure;altitude;pressure_sealevel;temperature;humidity
54262;BME280;40174;52.364;6.452;2023-03-22T00:02:10;100650.94;;;8.98;100.00
54262;BME280;40174;52.364;6.452;2023-03-22T00:04:40;100655.38;;;8.97;100.00
54262;BME280;40174;52.364;6.452;2023-03-22T00:07:07;100647.69;;;8.94;100.00
54262;BME280;40174;52.364;6.452;2023-03-22T00:09:34;100650.31;;;8.94;100.00
54262;BME280;40174;52.364;6.452;2023-03-22T00:12:00;100639.28;;;8.89;100.00
54262;BME280;40174;52.364;6.452;2023-03-22T00:14:27;100649.84;;;8.89;100.00
54262;BME280;40174;52.364;6.452;2023-03-22T00:16:54;100642.19;;;8.86;100.00
54262;BME280;40174;52.364;6.452;2023-03-22T00:19:20;100642.03;;;8.87;100.00
54262;BME280;40174;52.364;6.452;2023-03-22T00:21:48;100644.19;;;8.82;100.00
54262;BME280;40174;52.364;6.452;2023-03-22T00:24:16;100643.56;;;8.79;100.00
54262;BME280;40174;52.364;6.452;2023-03-22T00:26:45;100645.47;;;8.77;100.00
54262;BME280;40174;52.364;6.452;2023-03-22T00:29:13;100642.16;;;8.74;100.00
54262;BME280;40174;52.364;6.452;2023-03-22T00:31:40;100642.25;;;8.73;100.00
54262;BME280;40174;52.364;6.452;2023-03-22T00:34:07;100637.91;;;8.72;100.00
54262;BME280;40174;52.364;6.452;2023-03-22T00:36:33;100639.00;;;8.69;100.00
54262;BME280;40174;52.364;6.452;2023-03-22T00:39:03;100635.63;;;8.67;100.00
54262;BME280;40174;52.364;6.452;2023-03-22T00:41:30;100635.78;;;8.66;100.00
54262;BME280;40174;52.364;6.452;2023-03-22T00:43:56;100636.72;;;8.65;100.00
54262;BME280;40174;52.364;6.452;2023-03-22T00:46:23;100643.88;;;8.63;100.00
54262;BME280;40174;52.364;6.452;2023-03-22T00:48:50;100638.50;;;8.64;100.00
54262;BME280;40174;52.364;6.452;2023-03-22T00:51:16;100640.69;;;8.70;100.00
54262;BME280;40174;52.364;6.452;2023-03-22T00:53:43;100635.97;;;8.63;100.00
54262;BME280;40174;52.364;6.452;2023-03-22T00:56:15;100640.41;;;8.62;100.00
54262;BME280;40174;52.364;6.452;2023-03-22T00:58:51;100627.34;;;8.61;100.00
54262;BME280;40174;52.364;6.452;2023-03-22T01:01:17;100632.50;;;8.62;100.00
54262;BME280;40174;52.364;6.452;2023-03-22T01:03:44;100632.63;;;8.61;100.00
54262;BME280;40174;52.364;6.452;2023-03-22T01:06:14;100636.22;;;8.60;100.00
54262;BME280;40174;52.364;6.452;2023-03-22T01:08:41;100622.22;;;8.59;100.00
54262;BME280;40174;52.364;6.452;2023-03-22T01:11:08;100610.81;;;8.59;100.00
54262;BME280;40174;52.364;6.452;2023-03-22T01:13:36;100616.22;;;8.57;100.00
54262;BME280;40174;52.364;6.452;2023-03-22T01:16:04;100609.16;;;8.58;100.00
54262;BME280;40174;52.364;6.452;2023-03-22T01:18:32;100610.13;;;8.57;100.00
54262;BME280;40174;52.364;6.452;2023-03-22T01:20:59;100600.53;;;8.56;100.00
54262;BME280;40174;52.364;6.452;2023-03-22T01:23:26;100609.41;;;8.55;100.00
54262;BME280;40174;52.364;6.452;2023-03-22T01:25:53;100591.78;;;8.55;100.00
54262;BME280;40174;52.364;6.452;2023-03-22T01:28:20;100591.91;;;8.53;100.00
54262;BME280;40174;52.364;6.452;2023-03-22T01:30:48;100584.97;;;8.52;100.00
54262;BME280;40174;52.364;6.452;2023-03-22T01:33:15;100577.91;;;8.53;100.00
54262;BME280;40174;52.364;6.452;2023-03-22T01:35:42;100584.72;;;8.56;100.00
54262;BME280;40174;52.364;6.452;2023-03-22T01:38:09;100582.91;;;8.56;100.00
54262;BME280;40174;52.364;6.452;2023-03-22T01:40:42;100581.50;;;8.52;100.00
54262;BME280;40174;52.364;6.452;2023-03-22T01:43:12;100564.81;;;8.51;100.00
54262;BME280;40174;52.364;6.452;2023-03-22T01:45:42;100560.28;;;8.53;100.00
54262;BME280;40174;52.364;6.452;2023-03-22T01:48:17;100563.75;;;8.54;100.00
54262;BME280;40174;52.364;6.452;2023-03-22T01:50:50;100565.56;;;8.53;100.00
54262;BME280;40174;52.364;6.452;2023-03-22T01:53:22;100564.72;;;8.53;100.00
54262;BME280;40174;52.364;6.452;2023-03-22T01:55:52;100560.44;;;8.52;100.00
54262;BME280;40174;52.364;6.452;2023-03-22T01:58:26;100552.63;;;8.50;100.00
54262;BME280;40174;52.364;6.452;2023-03-22T02:00:57;100555.97;;;8.52;100.00
54262;BME280;40174;52.364;6.452;2023-03-22T02:03:45;100549.03;;;8.51;100.00
54262;BME280;40174;52.364;6.452;2023-03-22T02:06:14;100543.75;;;8.51;100.00
54262;BME280;40174;52.364;6.452;2023-03-22T02:08:41;100535.84;;;8.51;100.00
54262;BME280;40174;52.364;6.452;2023-03-22T02:11:15;100532.88;;;8.56;100.00
54262;BME280;40174;52.364;6.452;2023-03-22T02:14:10;100528.56;;;8.55;100.00
54262;BME280;40174;52.364;6.452;2023-03-22T02:17:08;100520.19;;;8.50;100.00
54262;BME280;40174;52.364;6.452;2023-03-22T02:20:12;100530.00;;;8.48;100.00
54262;BME280;40174;52.364;6.452;2023-03-22T02:28:52;100519.47;;;8.48;100.00
54262;BME280;40174;52.364;6.452;2023-03-22T02:31:57;100507.13;;;8.48;100.00
54262;BME280;40174;52.364;6.452;2023-03-22T02:37:40;100507.84;;;8.50;100.00
54262;BME280;40174;52.364;6.452;2023-03-22T02:40:15;100502.78;;;8.47;100.00
54262;BME280;40174;52.364;6.452;2023-03-22T02:42:54;100501.97;;;8.47;100.00
54262;BME280;40174;52.364;6.452;2023-03-22T02:45:27;100490.50;;;8.48;100.00
54262;BME280;40174;52.364;6.452;2023-03-22T02:48:04;100487.25;;;8.44;100.00
54262;BME280;40174;52.364;6.452;2023-03-22T02:50:37;100479.22;;;8.46;100.00
54262;BME280;40174;52.364;6.452;2023-03-22T02:53:10;100474.78;;;8.46;100.00
54262;BME280;40174;52.364;6.452;2023-03-22T02:55:43;100472.41;;;8.43;100.00
54262;BME280;40174;52.364;6.452;2023-03-22T02:58:16;100477.69;;;8.43;100.00
54262;BME280;40174;52.364;6.452;2023-03-22T03:00:45;100470.59;;;8.44;100.00
54262;BME280;40174;52.364;6.452;2023-03-22T03:03:14;100472.28;;;8.45;100.00
54262;BME280;40174;52.364;6.452;2023-03-22T03:05:45;100468.81;;;8.44;100.00
54262;BME280;40174;52.364;6.452;2023-03-22T03:08:15;100459.09;;;8.45;100.00
54262;BME280;40174;52.364;6.452;2023-03-22T03:10:45;100461.88;;;8.43;100.00
54262;BME280;40174;52.364;6.452;2023-03-22T03:13:14;100461.97;;;8.42;100.00
54262;BME280;40174;52.364;6.452;2023-03-22T03:15:45;100459.34;;;8.42;100.00
54262;BME280;40174;52.364;6.452;2023-03-22T03:18:22;100453.63;;;8.48;100.00
54262;BME280;40174;52.364;6.452;2023-03-22T03:20:57;100453.84;;;8.45;100.00
54262;BME280;40174;52.364;6.452;2023-03-22T03:23:33;100450.38;;;8.44;100.00
54262;BME280;40174;52.364;6.452;2023-03-22T03:26:08;100439.22;;;8.41;100.00
54262;BME280;40174;52.364;6.452;2023-03-22T03:28:42;100441.84;;;8.41;100.00
54262;BME280;40174;52.364;6.452;2023-03-22T03:31:22;100444.47;;;8.41;100.00
54262;BME280;40174;52.364;6.452;2023-03-22T03:33:58;100437.44;;;8.41;100.00
54262;BME280;40174;52.364;6.452;2023-03-22T03:36:27;100429.53;;;8.41;100.00
54262;BME280;40174;52.364;6.452;2023-03-22T03:38:56;100437.44;;;8.41;100.00
54262;BME280;40174;52.364;6.452;2023-03-22T03:41:27;100440.16;;;8.40;100.00
54262;BME280;40174;52.364;6.452;2023-03-22T03:43:55;100430.59;;;8.39;100.00
54262;BME280;40174;52.364;6.452;2023-03-22T03:46:22;100434.06;;;8.39;100.00
54262;BME280;40174;52.364;6.452;2023-03-22T03:48:55;100425.44;;;8.37;100.00
54262;BME280;40174;52.364;6.452;2023-03-22T03:51:23;100429.72;;;8.38;100.00
54262;BME280;40174;52.364;6.452;2023-03-22T03:53:51;100426.50;;;8.35;100.00
54262;BME280;40174;52.364;6.452;2023-03-22T03:56:20;100428.31;;;8.34;100.00
54262;BME280;40174;52.364;6.452;2023-03-22T03:58:49;100422.34;;;8.32;100.00
54262;BME280;40174;52.364;6.452;2023-03-22T04:01:16;100419.44;;;8.35;100.00
54262;BME280;40174;52.364;6.452;2023-03-22T04:04:02;100411.28;;;8.38;100.00
54262;BME280;40174;52.364;6.452;2023-03-22T04:06:38;100417.53;;;8.37;100.00
54262;BME280;40174;52.364;6.452;2023-03-22T04:09:14;100415.97;;;8.35;100.00
54262;BME280;40174;52.364;6.452;2023-03-22T04:11:44;100415.00;;;8.36;100.00
54262;BME280;40174;52.364;6.452;2023-03-22T04:14:14;100415.16;;;8.34;100.00
54262;BME280;40174;52.364;6.452;2023-03-22T04:16:40;100414.06;;;8.37;100.00
54262;BME280;40174;52.364;6.452;2023-03-22T04:19:11;100414.69;;;8.40;100.00
54262;BME280;40174;52.364;6.452;2023-03-22T04:21:38;100413.94;;;8.38;100.00
54262;BME280;40174;52.364;6.452;2023-03-22T04:24:06;100407.63;;;8.41;100.00
54262;BME280;40174;52.364;6.452;2023-03-22T04:26:37;100413.94;;;8.38;100.00
54262;BME280;40174;52.364;6.452;2023-03-22T04:29:20;100412.38;;;8.36;100.00
54262;BME280;40174;52.364;6.452;2023-03-22T04:31:51;100402.47;;;8.39;100.00
54262;BME280;40174;52.364;6.452;2023-03-22T04:34:26;100409.41;;;8.40;100.00
54262;BME280;40174;52.364;6.452;2023-03-22T04:36:59;100401.41;;;8.42;100.00
54262;BME280;40174;52.364;6.452;2023-03-22T04:39:29;100408.47;;;8.41;100.00
54262;BME280;40174;52.364;6.452;2023-03-22T04:42:09;100400.56;;;8.41;100.00
54262;BME280;40174;52.364;6.452;2023-03-22T04:44:39;100402.97;;;8.44;100.00
54262;BME280;40174;52.364;6.452;2023-03-22T04:47:05;100398.41;;;8.46;100.00
54262;BME280;40174;52.364;6.452;2023-03-22T04:49:33;100400.31;;;8.44;100.00
54262;BME280;40174;52.364;6.452;2023-03-22T04:52:00;100394.81;;;8.47;100.00
54262;BME280;40174;52.364;6.452;2023-03-22T04:54:32;100402.22;;;8.53;100.00
54262;BME280;40174;52.364;6.452;2023-03-22T04:57:00;100395.06;;;8.56;100.00
54262;BME280;40174;52.364;6.452;2023-03-22T04:59:32;100395.06;;;8.56;100.00
54262;BME280;40174;52.364;6.452;2023-03-22T05:02:01;100393.25;;;8.56;100.00
54262;BME280;40174;52.364;6.452;2023-03-22T05:04:34;100392.16;;;8.59;100.00
54262;BME280;40174;52.364;6.452;2023-03-22T05:07:10;100389.69;;;8.57;100.00
54262;BME280;40174;52.364;6.452;2023-03-22T05:09:45;100388.59;;;8.60;100.00
54262;BME280;40174;52.364;6.452;2023-03-22T05:12:13;100387.88;;;8.58;100.00
54262;BME280;40174;52.364;6.452;2023-03-22T05:14:47;100395.06;;;8.56;100.00
54262;BME280;40174;52.364;6.452;2023-03-22T05:17:19;100392.31;;;8.57;100.00
54262;BME280;40174;52.364;6.452;2023-03-22T05:19:48;100383.56;;;8.57;100.00
54262;BME280;40174;52.364;6.452;2023-03-22T05:22:15;100387.03;;;8.57;100.00
54262;BME280;40174;52.364;6.452;2023-03-22T05:24:46;100381.16;;;8.53;100.00
54262;BME280;40174;52.364;6.452;2023-03-22T05:27:22;100380.34;;;8.53;100.00
54262;BME280;40174;52.364;6.452;2023-03-22T05:29:59;100367.16;;;8.53;100.00
54262;BME280;40174;52.364;6.452;2023-03-22T05:32:39;100368.72;;;8.56;100.00
54262;BME280;40174;52.364;6.452;2023-03-22T05:35:09;100372.53;;;8.51;100.00
54262;BME280;40174;52.364;6.452;2023-03-22T05:37:40;100358.44;;;8.52;100.00
54262;BME280;40174;52.364;6.452;2023-03-22T05:40:08;100349.69;;;8.52;100.00
54262;BME280;40174;52.364;6.452;2023-03-22T05:42:39;100355.66;;;8.54;100.00
54262;BME280;40174;52.364;6.452;2023-03-22T05:45:15;100355.78;;;8.52;100.00
54262;BME280;40174;52.364;6.452;2023-03-22T05:47:48;100366.78;;;8.58;100.00
54262;BME280;40174;52.364;6.452;2023-03-22T05:50:22;100364.28;;;8.56;100.00
54262;BME280;40174;52.364;6.452;2023-03-22T05:52:49;100354.47;;;8.58;100.00
54262;BME280;40174;52.364;6.452;2023-03-22T05:55:22;100359.63;;;8.60;100.00
54262;BME280;40174;52.364;6.452;2023-03-22T05:57:54;100361.16;;;8.62;100.00
54262;BME280;40174;52.364;6.452;2023-03-22T06:00:23;100360.56;;;8.59;100.00
54262;BME280;40174;52.364;6.452;2023-03-22T06:03:16;100364.88;;;8.60;100.00
54262;BME280;40174;52.364;6.452;2023-03-22T06:05:49;100356.88;;;8.61;100.00
54262;BME280;40174;52.364;6.452;2023-03-22T06:08:17;100356.00;;;8.61;100.00
54262;BME280;40174;52.364;6.452;2023-03-22T06:10:43;100360.06;;;8.65;100.00
54262;BME280;40174;52.364;6.452;2023-03-22T06:13:10;100361.16;;;8.62;100.00
54262;BME280;40174;52.364;6.452;2023-03-22T06:15:37;100359.84;;;8.68;100.00
54262;BME280;40174;52.364;6.452;2023-03-22T06:18:06;100359.13;;;8.66;100.00
54262;BME280;40174;52.364;6.452;2023-03-22T06:20:41;100362.59;;;8.66;100.00
54262;BME280;40174;52.364;6.452;2023-03-22T06:23:14;100357.22;;;8.68;100.00
54262;BME280;40174;52.364;6.452;2023-03-22T06:25:43;100364.25;;;8.67;100.00
54262;BME280;40174;52.364;6.452;2023-03-22T06:28:11;100362.34;;;8.69;100.00
54262;BME280;40174;52.364;6.452;2023-03-22T06:30:43;100350.25;;;8.67;100.00
54262;BME280;40174;52.364;6.452;2023-03-22T06:33:22;100345.09;;;8.65;100.00
54262;BME280;40174;52.364;6.452;2023-03-22T06:35:58;100343.19;;;8.67;100.00
54262;BME280;40174;52.364;6.452;2023-03-22T06:38:46;100339.84;;;8.65;100.00
54262;BME280;40174;52.364;6.452;2023-03-22T06:41:13;100328.59;;;8.63;100.00
54262;BME280;40174;52.364;6.452;2023-03-22T06:43:40;100349.53;;;8.65;100.00
54262;BME280;40174;52.364;6.452;2023-03-22T06:46:21;100338.28;;;8.63;100.00
54262;BME280;40174;52.364;6.452;2023-03-22T06:48:57;100335.28;;;8.67;100.00
54262;BME280;40174;52.364;6.452;2023-03-22T06:51:25;100336.97;;;8.68;100.00
54262;BME280;40174;52.364;6.452;2023-03-22T06:53:52;100343.53;;;8.74;100.00
54262;BME280;40174;52.364;6.452;2023-03-22T06:56:18;100353.47;;;8.82;100.00
54262;BME280;40174;52.364;6.452;2023-03-22T06:58:49;100354.03;;;8.85;100.00
54262;BME280;40174;52.364;6.452;2023-03-22T07:01:16;100359.66;;;8.92;100.00
54262;BME280;40174;52.364;6.452;2023-03-22T07:03:43;100355.25;;;8.92;100.00
54262;BME280;40174;52.364;6.452;2023-03-22T07:06:13;100340.00;;;8.96;100.00
54262;BME280;40174;52.364;6.452;2023-03-22T07:08:45;100341.81;;;8.95;100.00
54262;BME280;40174;52.364;6.452;2023-03-22T07:11:15;100331.97;;;8.98;100.00
54262;BME280;40174;52.364;6.452;2023-03-22T07:13:46;100338.53;;;9.03;100.00
54262;BME280;40174;52.364;6.452;2023-03-22T07:16:17;100334.47;;;9.10;100.00
54262;BME280;40174;52.364;6.452;2023-03-22T07:18:48;100331.19;;;9.18;100.00
54262;BME280;40174;52.364;6.452;2023-03-22T07:21:15;100328.28;;;9.21;100.00
54262;BME280;40174;52.364;6.452;2023-03-22T07:23:48;100332.34;;;9.25;100.00
54262;BME280;40174;52.364;6.452;2023-03-22T07:26:16;100340.25;;;9.25;100.00
54262;BME280;40174;52.364;6.452;2023-03-22T07:28:46;100342.78;;;9.27;100.00
54262;BME280;40174;52.364;6.452;2023-03-22T07:31:14;100342.50;;;9.30;100.00
54262;BME280;40174;52.364;6.452;2023-03-22T07:34:01;100335.75;;;9.37;100.00
54262;BME280;40174;52.364;6.452;2023-03-22T07:36:31;100337.91;;;9.43;100.00
54262;BME280;40174;52.364;6.452;2023-03-22T07:39:00;100338.72;;;9.44;100.00
54262;BME280;40174;52.364;6.452;2023-03-22T07:41:30;100334.63;;;9.51;100.00
54262;BME280;40174;52.364;6.452;2023-03-22T07:44:24;100338.34;;;9.69;100.00
54262;BME280;40174;52.364;6.452;2023-03-22T07:47:11;100340.22;;;9.78;100.00
54262;BME280;40174;52.364;6.452;2023-03-22T07:49:45;100345.63;;;9.77;100.00
54262;BME280;40174;52.364;6.452;2023-03-22T07:52:16;100342.97;;;9.77;100.00
54262;BME280;40174;52.364;6.452;2023-03-22T07:54:44;100350.91;;;9.77;100.00
54262;BME280;40174;52.364;6.452;2023-03-22T07:57:11;100343.25;;;9.74;100.00
54262;BME280;40174;52.364;6.452;2023-03-22T07:59:43;100356.06;;;9.78;100.00
54262;BME280;40174;52.364;6.452;2023-03-22T08:02:11;100343.84;;;9.77;100.00
54262;BME280;40174;52.364;6.452;2023-03-22T08:04:44;100345.50;;;9.78;100.00
54262;BME280;40174;52.364;6.452;2023-03-22T08:07:19;100339.38;;;9.78;100.00
54262;BME280;40174;52.364;6.452;2023-03-22T08:09:47;100342.97;;;9.77;100.00
54262;BME280;40174;52.364;6.452;2023-03-22T08:12:14;100330.66;;;9.77;100.00
54262;BME280;40174;52.364;6.452;2023-03-22T08:14:43;100345.09;;;9.83;100.00
54262;BME280;40174;52.364;6.452;2023-03-22T08:17:17;100339.94;;;9.82;100.00
54262;BME280;40174;52.364;6.452;2023-03-22T08:19:44;100341.38;;;9.86;100.00
54262;BME280;40174;52.364;6.452;2023-03-22T08:22:15;100338.72;;;9.86;100.00
54262;BME280;40174;52.364;6.452;2023-03-22T08:25:16;100344.84;;;9.86;100.00
54262;BME280;40174;52.364;6.452;2023-03-22T08:27:43;100348.34;;;9.87;100.00
54262;BME280;40174;52.364;6.452;2023-03-22T08:30:10;100344.84;;;9.86;100.00
54262;BME280;40174;52.364;6.452;2023-03-22T08:32:37;100340.41;;;9.87;100.00
54262;BME280;40174;52.364;6.452;2023-03-22T08:35:05;100337.38;;;9.91;100.00
54262;BME280;40174;52.364;6.452;2023-03-22T08:37:32;100340.72;;;9.93;100.00
54262;BME280;40174;52.364;6.452;2023-03-22T08:40:01;100343.38;;;9.93;100.00
54262;BME280;40174;52.364;6.452;2023-03-22T08:42:50;100342.59;;;10.03;100.00
54262;BME280;40174;52.364;6.452;2023-03-22T08:45:17;100348.41;;;10.06;100.00
54262;BME280;40174;52.364;6.452;2023-03-22T08:47:55;100348.88;;;10.11;100.00
54262;BME280;40174;52.364;6.452;2023-03-22T08:50:23;100337.91;;;10.16;100.00
54262;BME280;40174;52.364;6.452;2023-03-22T08:53:08;100335.59;;;10.23;100.00
54262;BME280;40174;52.364;6.452;2023-03-22T08:55:36;100331.34;;;10.31;100.00
54262;BME280;40174;52.364;6.452;2023-03-22T08:58:12;100345.09;;;10.35;100.00
54262;BME280;40174;52.364;6.452;2023-03-22T09:00:48;100334.41;;;10.36;100.00
54262;BME280;40174;52.364;6.452;2023-03-22T09:03:22;100344.69;;;10.39;100.00
54262;BME280;40174;52.364;6.452;2023-03-22T09:05:49;100344.56;;;10.41;100.00
54262;BME280;40174;52.364;6.452;2023-03-22T09:08:16;100340.53;;;10.47;100.00
54262;BME280;40174;52.364;6.452;2023-03-22T09:10:45;100332.91;;;10.44;100.00
54262;BME280;40174;52.364;6.452;2023-03-22T09:13:18;100333.31;;;10.49;100.00
54262;BME280;40174;52.364;6.452;2023-03-22T09:15:52;100331.13;;;10.54;100.00
54262;BME280;40174;52.364;6.452;2023-03-22T09:18:25;100328.63;;;10.62;100.00
54262;BME280;40174;52.364;6.452;2023-03-22T09:20:55;100309.03;;;10.65;100.00
54262;BME280;40174;52.364;6.452;2023-03-22T09:23:27;100333.56;;;10.76;100.00
54262;BME280;40174;52.364;6.452;2023-03-22T09:25:55;100317.81;;;10.85;100.00
54262;BME280;40174;52.364;6.452;2023-03-22T09:28:25;100307.13;;;10.96;100.00
54262;BME280;40174;52.364;6.452;2023-03-22T09:30:58;100311.16;;;11.00;100.00
54262;BME280;40174;52.364;6.452;2023-03-22T09:33:25;100306.56;;;11.02;100.00
54262;BME280;40174;52.364;6.452;2023-03-22T09:35:53;100320.63;;;11.02;100.00
54262;BME280;40174;52.364;6.452;2023-03-22T09:38:21;100312.00;;;11.10;100.00
54262;BME280;40174;52.364;6.452;2023-03-22T09:40:51;100319.25;;;11.08;100.00
54262;BME280;40174;52.364;6.452;2023-03-22T09:43:29;100312.56;;;11.04;100.00
54262;BME280;40174;52.364;6.452;2023-03-22T09:45:59;100304.63;;;11.04;100.00
54262;BME280;40174;52.364;6.452;2023-03-22T09:48:29;100317.00;;;11.03;100.00
54262;BME280;40174;52.364;6.452;2023-03-22T09:50:56;100312.56;;;11.04;100.00
54262;BME280;40174;52.364;6.452;2023-03-22T09:53:26;100323.84;;;11.06;100.00
54262;BME280;40174;52.364;6.452;2023-03-22T09:55:56;100317.72;;;11.06;100.00
54262;BME280;40174;52.364;6.452;2023-03-22T09:58:29;100324.38;;;11.00;100.00
54262;BME280;40174;52.364;6.452;2023-03-22T10:01:00;100333.31;;;10.99;100.00
54262;BME280;40174;52.364;6.452;2023-03-22T10:03:45;100334.25;;;10.98;100.00
54262;BME280;40174;52.364;6.452;2023-03-22T10:06:19;100332.44;;;10.98;100.00
54262;BME280;40174;52.364;6.452;2023-03-22T10:08:55;100325.09;;;10.92;100.00
54262;BME280;40174;52.364;6.452;2023-03-22T10:11:24;100323.97;;;10.95;100.00
54262;BME280;40174;52.364;6.452;2023-03-22T10:14:01;100329.38;;;10.93;100.00
54262;BME280;40174;52.364;6.452;2023-03-22T10:16:31;100318.69;;;10.95;100.00
54262;BME280;40174;52.364;6.452;2023-03-22T10:19:04;100325.09;;;10.92;100.00
54262;BME280;40174;52.364;6.452;2023-03-22T10:21:33;100308.22;;;10.93;100.00
54262;BME280;40174;52.364;6.452;2023-03-22T10:24:04;100317.56;;;10.88;100.00
54262;BME280;40174;52.364;6.452;2023-03-22T10:26:37;100321.44;;;10.84;100.00
54262;BME280;40174;52.364;6.452;2023-03-22T10:29:11;100332.28;;;10.80;100.00
54262;BME280;40174;52.364;6.452;2023-03-22T10:31:41;100326.44;;;10.77;100.00
54262;BME280;40174;52.364;6.452;2023-03-22T10:34:15;100318.78;;;10.74;100.00
54262;BME280;40174;52.364;6.452;2023-03-22T10:36:45;100321.16;;;10.77;100.00
54262;BME280;40174;52.364;6.452;2023-03-22T10:39:21;100325.75;;;10.75;100.00
54262;BME280;40174;52.364;6.452;2023-03-22T10:41:52;100325.88;;;10.73;100.00
54262;BME280;40174;52.364;6.452;2023-03-22T10:44:22;100319.88;;;10.71;100.00
54262;BME280;40174;52.364;6.452;2023-03-22T10:46:51;100334.78;;;10.72;100.00
54262;BME280;40174;52.364;6.452;2023-03-22T10:49:23;100326.28;;;10.69;100.00
54262;BME280;40174;52.364;6.452;2023-03-22T10:51:53;100324.47;;;10.69;100.00
54262;BME280;40174;52.364;6.452;2023-03-22T10:54:23;100331.28;;;10.62;100.00
54262;BME280;40174;52.364;6.452;2023-03-22T10:56:50;100327.22;;;10.58;100.00
54262;BME280;40174;52.364;6.452;2023-03-22T10:59:43;100335.16;;;10.58;100.00
54262;BME280;40174;52.364;6.452;2023-03-22T11:02:20;100334.72;;;10.53;100.00
54262;BME280;40174;52.364;6.452;2023-03-22T11:04:48;100343.66;;;10.52;100.00
54262;BME280;40174;52.364;6.452;2023-03-22T11:07:28;100346.28;;;10.52;100.00
54262;BME280;40174;52.364;6.452;2023-03-22T11:10:10;100335.84;;;10.50;100.00
54262;BME280;40174;52.364;6.452;2023-03-22T11:12:40;100336.81;;;10.49;100.00
54262;BME280;40174;52.364;6.452;2023-03-22T11:15:19;100334.84;;;10.51;100.00
54262;BME280;40174;52.364;6.452;2023-03-22T11:17:47;100337.78;;;10.48;100.00
54262;BME280;40174;52.364;6.452;2023-03-22T11:20:16;100341.00;;;10.52;100.00
54262;BME280;40174;52.364;6.452;2023-03-22T11:22:44;100337.38;;;10.53;100.00
54262;BME280;40174;52.364;6.452;2023-03-22T11:25:14;100333.78;;;10.54;100.00
54262;BME280;40174;52.364;6.452;2023-03-22T11:27:49;100330.72;;;10.58;100.00
54262;BME280;40174;52.364;6.452;2023-03-22T11:30:22;100332.09;;;10.63;100.00
54262;BME280;40174;52.364;6.452;2023-03-22T11:32:59;100321.28;;;10.66;100.00
54262;BME280;40174;52.364;6.452;2023-03-22T11:35:29;100326.41;;;10.67;100.00
54262;BME280;40174;52.364;6.452;2023-03-22T11:37:56;100327.09;;;10.69;100.00
54262;BME280;40174;52.364;6.452;2023-03-22T11:40:25;100328.94;;;10.69;100.00
54262;BME280;40174;52.364;6.452;2023-03-22T11:42:54;100318.47;;;10.67;100.00
54262;BME280;40174;52.364;6.452;2023-03-22T11:45:26;100328.81;;;10.70;100.00
54262;BME280;40174;52.364;6.452;2023-03-22T11:48:00;100329.63;;;10.71;100.00
54262;BME280;40174;52.364;6.452;2023-03-22T11:50:29;100323.63;;;10.69;100.00
54262;BME280;40174;52.364;6.452;2023-03-22T11:52:56;100324.63;;;10.68;100.00
54262;BME280;40174;52.364;6.452;2023-03-22T11:55:23;100319.06;;;10.71;100.00
54262;BME280;40174;52.364;6.452;2023-03-22T11:57:54;100321.13;;;10.67;100.00
54262;BME280;40174;52.364;6.452;2023-03-22T12:00:25;100325.31;;;10.70;100.00
54262;BME280;40174;52.364;6.452;2023-03-22T12:02:54;100326.28;;;10.69;100.00
54262;BME280;40174;52.364;6.452;2023-03-22T12:05:25;100321.00;;;10.69;100.00
54262;BME280;40174;52.364;6.452;2023-03-22T12:07:57;100322.81;;;10.68;100.00
54262;BME280;40174;52.364;6.452;2023-03-22T12:10:28;100308.34;;;10.72;100.00
54262;BME280;40174;52.364;6.452;2023-03-22T12:12:59;100300.13;;;10.66;100.00
54262;BME280;40174;52.364;6.452;2023-03-22T12:15:30;100301.09;;;10.65;100.00
54262;BME280;40174;52.364;6.452;2023-03-22T12:18:02;100316.41;;;10.61;100.00
54262;BME280;40174;52.364;6.452;2023-03-22T12:20:35;100304.59;;;10.65;100.00
54262;BME280;40174;52.364;6.452;2023-03-22T12:23:12;100305.00;;;10.60;100.00
54262;BME280;40174;52.364;6.452;2023-03-22T12:25:42;100331.03;;;10.65;100.00
54262;BME280;40174;52.364;6.452;2023-03-22T12:28:14;100330.16;;;10.65;100.00
54262;BME280;40174;52.364;6.452;2023-03-22T12:30:45;100312.34;;;10.57;100.00
54262;BME280;40174;52.364;6.452;2023-03-22T12:33:17;100331.56;;;10.59;100.00
54262;BME280;40174;52.364;6.452;2023-03-22T12:35:46;100327.09;;;10.59;100.00
54262;BME280;40174;52.364;6.452;2023-03-22T12:38:21;100329.16;;;10.56;100.00
54262;BME280;40174;52.364;6.452;2023-03-22T12:40:48;100333.91;;;10.62;100.00
54262;BME280;40174;52.364;6.452;2023-03-22T12:43:26;100329.16;;;10.56;100.00
54262;BME280;40174;52.364;6.452;2023-03-22T12:45:59;100339.19;;;10.52;100.00
54262;BME280;40174;52.364;6.452;2023-03-22T12:48:34;100324.03;;;10.54;100.00
54262;BME280;40174;52.364;6.452;2023-03-22T12:51:05;100326.53;;;10.56;100.00
54262;BME280;40174;52.364;6.452;2023-03-22T12:53:35;100324.88;;;10.55;100.00
54262;BME280;40174;52.364;6.452;2023-03-22T12:56:09;100324.03;;;10.54;100.00
54262;BME280;40174;52.364;6.452;2023-03-22T12:58:36;100326.97;;;10.61;100.00
54262;BME280;40174;52.364;6.452;2023-03-22T13:01:15;100311.38;;;10.58;100.00
54262;BME280;40174;52.364;6.452;2023-03-22T13:03:47;100325.16;;;10.61;100.00
54262;BME280;40174;52.364;6.452;2023-03-22T13:06:32;100327.38;;;10.56;100.00
54262;BME280;40174;52.364;6.452;2023-03-22T13:09:15;100328.50;;;10.54;100.00
54262;BME280;40174;52.364;6.452;2023-03-22T13:11:44;100325.00;;;10.53;100.00
54262;BME280;40174;52.364;6.452;2023-03-22T13:14:52;100325.69;;;10.55;100.00
54262;BME280;40174;52.364;6.452;2023-03-22T13:17:05;100316.94;;;10.55;100.00
54262;BME280;40174;52.364;6.452;2023-03-22T13:19:34;100334.19;;;10.59;100.00